createdAt,value
2019-01-28T00:03:23.772Z,98246.92
2019-01-28T00:08:26.066Z,98254.14
2019-01-28T00:13:28.357Z,98254.40
2019-01-28T00:18:31.296Z,98264.27
2019-01-28T00:23:34.482Z,98270.34
2019-01-28T00:28:36.753Z,98276.53
2019-01-28T00:33:39.555Z,98276.83
2019-01-28T00:38:41.941Z,98276.03
2019-01-28T00:43:44.495Z,98276.16
2019-01-28T00:48:47.604Z,98275.06
2019-01-28T00:53:50.697Z,98279.03
2019-01-28T00:58:53.692Z,98288.45
2019-01-28T01:03:56.143Z,98286.89
2019-01-28T01:08:58.432Z,98297.07
2019-01-28T01:14:00.720Z,98292.84
2019-01-28T01:19:03.777Z,98295.48
2019-01-28T01:24:06.324Z,98308.03
2019-01-28T01:29:09.386Z,98317.80
2019-01-28T01:34:11.724Z,98313.72
2019-01-28T01:39:14.416Z,98315.89
2019-01-28T01:44:16.711Z,98321.02
2019-01-28T01:49:19.443Z,98325.84
2019-01-28T01:54:21.893Z,98328.10
2019-01-28T01:59:24.764Z,98323.16
2019-01-28T02:04:27.594Z,98327.91
2019-01-28T02:09:30.162Z,98325.61
2019-01-28T02:14:32.179Z,98329.34
2019-01-28T02:19:34.823Z,98327.77
2019-01-28T02:24:37.254Z,98331.09
2019-01-28T02:29:39.625Z,98340.67
2019-01-28T02:34:41.965Z,98334.78
2019-01-28T02:39:44.748Z,98335.03
2019-01-28T02:44:47.592Z,98335.44
2019-01-28T02:49:49.962Z,98341.63
2019-01-28T02:54:52.427Z,98340.88
2019-01-28T02:59:55.096Z,98342.47
2019-01-28T03:04:57.384Z,98341.23
2019-01-28T03:09:59.700Z,98348.23
2019-01-28T03:15:02.190Z,98353.20
2019-01-28T03:20:05.995Z,98357.50
2019-01-28T03:25:09.589Z,98350.48
2019-01-28T03:30:14.842Z,98367.53
2019-01-28T03:35:18.140Z,98357.63
2019-01-28T03:40:21.110Z,98360.76
2019-01-28T03:45:23.598Z,98365.02
2019-01-28T03:50:26.567Z,98377.71
2019-01-28T03:55:29.303Z,98369.13
2019-01-28T04:00:32.158Z,98370.70
2019-01-28T04:05:34.470Z,98372.50
2019-01-28T04:10:37.549Z,98370.56
2019-01-28T04:15:39.790Z,98369.61
2019-01-28T04:20:42.076Z,98366.18
2019-01-28T04:25:44.633Z,98373.95
2019-01-28T04:30:47.683Z,98369.45
2019-01-28T04:35:50.385Z,98368.66
2019-01-28T04:40:52.892Z,98368.07
2019-01-28T04:45:55.196Z,98366.52
2019-01-28T04:50:57.789Z,98377.56
2019-01-28T04:56:00.788Z,98376.02
2019-01-28T05:01:03.440Z,98383.48
2019-01-28T05:06:06.413Z,98384.98
2019-01-28T05:11:08.578Z,98387.52
2019-01-28T05:16:11.332Z,98389.22
2019-01-28T05:21:14.315Z,98383.20
2019-01-28T05:26:16.390Z,98386.94
2019-01-28T05:31:18.823Z,98387.86
2019-01-28T05:36:21.696Z,98396.01
2019-01-28T05:41:24.694Z,98389.06
2019-01-28T05:46:27.259Z,98387.08
2019-01-28T05:51:29.523Z,98390.58
2019-01-28T05:56:32.234Z,98392.81
2019-01-28T06:01:34.276Z,98395.95
2019-01-28T06:06:37.282Z,98389.80
2019-01-28T06:11:39.883Z,98402.83
2019-01-28T06:16:41.897Z,98404.28
2019-01-28T06:21:44.107Z,98409.30
2019-01-28T06:26:46.549Z,98412.30
2019-01-28T06:31:48.861Z,98408.91
2019-01-28T06:36:51.570Z,98416.46
2019-01-28T06:41:54.249Z,98421.78
2019-01-28T06:46:56.733Z,98435.23
2019-01-28T06:51:59.401Z,98426.14
2019-01-28T06:57:01.984Z,98440.38
2019-01-28T07:02:05.393Z,98445.31
2019-01-28T07:07:07.994Z,98452.05
2019-01-28T07:12:10.920Z,98448.64
2019-01-28T07:17:13.795Z,98449.35
2019-01-28T07:22:16.712Z,98460.63
2019-01-28T07:27:19.728Z,98465.58
2019-01-28T07:32:22.765Z,98472.28
2019-01-28T07:37:25.086Z,98482.00
2019-01-28T07:42:28.233Z,98482.47
2019-01-28T07:47:30.791Z,98487.32
2019-01-28T07:52:32.788Z,98499.13
2019-01-28T07:57:35.901Z,98500.88
2019-01-28T08:02:38.584Z,98500.03
2019-01-28T08:07:41.546Z,98511.16
2019-01-28T08:12:44.742Z,98518.09
2019-01-28T08:17:47.987Z,98521.95
2019-01-28T08:22:50.788Z,98523.80
2019-01-28T08:27:53.464Z,98527.63
2019-01-28T08:32:56.173Z,98523.70
2019-01-28T08:37:59.491Z,98532.19
2019-01-28T08:43:02.930Z,98534.55
2019-01-28T08:48:05.767Z,98538.05
2019-01-28T08:53:07.854Z,98549.95
2019-01-28T08:58:10.462Z,98555.16
2019-01-28T09:03:13.103Z,98560.68
2019-01-28T09:08:16.149Z,98565.17
2019-01-28T09:13:17.925Z,98559.67
2019-01-28T09:18:26.201Z,98564.03
2019-01-28T09:23:25.000Z,98570.86
2019-01-28T09:28:27.790Z,98576.19
2019-01-28T09:33:29.748Z,98587.06
2019-01-28T09:38:32.557Z,98588.23
2019-01-28T09:43:35.448Z,98591.28
2019-01-28T09:48:37.862Z,98600.59
2019-01-28T09:53:40.028Z,98603.64
2019-01-28T09:58:42.521Z,98607.03
2019-01-28T10:03:45.476Z,98608.91
2019-01-28T10:08:49.825Z,98612.84
2019-01-28T10:13:51.852Z,98617.44
2019-01-28T10:18:54.123Z,98633.89
2019-01-28T10:23:57.263Z,98630.30
2019-01-28T10:29:00.219Z,98623.52
2019-01-28T10:34:03.158Z,98640.78
2019-01-28T10:39:10.173Z,98632.33
2019-01-28T10:44:13.557Z,98642.61
2019-01-28T10:49:15.853Z,98643.20
2019-01-28T10:54:18.350Z,98652.90
2019-01-28T10:59:21.218Z,98646.16
2019-01-28T11:04:24.356Z,98649.35
2019-01-28T11:09:26.793Z,98647.42
2019-01-28T11:14:29.252Z,98650.83
2019-01-28T11:19:32.448Z,98648.03
2019-01-28T11:24:35.441Z,98647.06
2019-01-28T11:29:38.264Z,98657.77
2019-01-28T11:34:40.986Z,98655.12
2019-01-28T11:39:43.972Z,98658.58
2019-01-28T11:44:46.531Z,98656.17
2019-01-28T11:49:49.710Z,98666.70
2019-01-28T11:54:52.829Z,98672.54
2019-01-28T11:59:55.981Z,98675.72
2019-01-28T12:04:58.644Z,98680.45
2019-01-28T12:10:01.472Z,98679.78
2019-01-28T12:15:06.220Z,98686.65
2019-01-28T12:20:09.157Z,98681.36
2019-01-28T12:25:12.506Z,98693.95
2019-01-28T12:30:18.235Z,98695.89
2019-01-28T12:35:21.709Z,98700.57
2019-01-28T12:40:24.314Z,98705.87
2019-01-28T12:45:26.622Z,98705.52
2019-01-28T12:50:29.522Z,98709.74
2019-01-28T12:55:33.935Z,98712.82
2019-01-28T13:00:39.946Z,98719.36
2019-01-28T13:05:42.721Z,98727.94
2019-01-28T13:10:45.678Z,98731.95
2019-01-28T13:15:48.983Z,98733.87
2019-01-28T13:20:51.576Z,98741.70
2019-01-28T13:25:54.277Z,98748.64
2019-01-28T13:30:57.338Z,98751.14
2019-01-28T13:36:00.551Z,98765.95
2019-01-28T13:41:03.109Z,98753.95
2019-01-28T13:46:05.526Z,98756.98
2019-01-28T13:51:08.241Z,98762.10
2019-01-28T13:56:11.436Z,98775.98
2019-01-28T14:01:14.348Z,98782.89
2019-01-28T14:06:17.343Z,98792.28
2019-01-28T14:11:20.080Z,98805.51
2019-01-28T14:16:22.153Z,98814.48
2019-01-28T14:21:24.562Z,98812.13
2019-01-28T14:26:27.436Z,98825.97
2019-01-28T14:31:29.827Z,98830.97
2019-01-28T14:36:32.850Z,98836.84
2019-01-28T14:41:35.647Z,98837.36
2019-01-28T14:46:38.733Z,98840.13
2019-01-28T14:51:41.703Z,98850.26
2019-01-28T14:56:44.139Z,98859.11
2019-01-28T15:01:46.845Z,98865.05
2019-01-28T15:06:49.226Z,98869.48
2019-01-28T15:11:51.720Z,98875.24
2019-01-28T15:16:54.215Z,98875.94
2019-01-28T15:21:56.380Z,98877.02
2019-01-28T15:26:59.130Z,98887.22
2019-01-28T15:32:01.473Z,98900.13
2019-01-28T15:37:04.292Z,98903.31
2019-01-28T15:42:07.043Z,98909.85
2019-01-28T15:47:10.070Z,98917.20
2019-01-28T15:52:12.896Z,98928.44
2019-01-28T15:57:15.274Z,98931.84
2019-01-28T16:02:17.671Z,98945.05
2019-01-28T16:07:20.280Z,98954.00
2019-01-28T16:12:22.705Z,98969.02
2019-01-28T16:17:25.956Z,98992.32
2019-01-28T16:22:28.969Z,99003.77
2019-01-28T16:27:31.596Z,99015.55
2019-01-28T16:32:34.698Z,99023.66
2019-01-28T16:37:37.577Z,99032.42
2019-01-28T16:42:40.082Z,99046.95
2019-01-28T16:47:42.871Z,99055.17
2019-01-28T16:52:45.319Z,99064.88
2019-01-28T16:57:48.371Z,99068.37
2019-01-28T17:02:51.614Z,99075.58
2019-01-28T17:07:54.544Z,99080.41
2019-01-28T17:12:56.984Z,99084.52
2019-01-28T17:17:59.528Z,99095.19
2019-01-28T17:23:02.970Z,99099.45
2019-01-28T17:28:05.256Z,99109.31
2019-01-28T17:33:08.542Z,99122.07
2019-01-28T17:38:11.471Z,99131.97
2019-01-28T17:43:15.668Z,99142.09
2019-01-28T17:48:18.204Z,99149.31
2019-01-28T17:53:21.028Z,99167.75
2019-01-28T17:58:23.824Z,99165.19
2019-01-28T18:03:26.627Z,99174.34
2019-01-28T18:08:29.424Z,99149.41
2019-01-28T18:13:35.161Z,99181.80
2019-01-28T18:18:37.999Z,99189.45
2019-01-28T18:23:47.050Z,99196.33
2019-01-28T18:28:52.646Z,99209.06
2019-01-28T18:33:55.431Z,99213.22
2019-01-28T18:38:58.550Z,99219.20
2019-01-28T18:44:01.631Z,99228.92
2019-01-28T18:49:05.256Z,99233.74
2019-01-28T18:54:09.299Z,99239.26
2019-01-28T18:59:12.788Z,99251.44
2019-01-28T19:04:16.110Z,99252.28
2019-01-28T19:09:26.860Z,99255.89
2019-01-28T19:14:44.640Z,99269.55
2019-01-28T19:20:16.436Z,99282.75
2019-01-28T19:25:20.165Z,99286.55
2019-01-28T19:30:24.302Z,99294.48
2019-01-28T19:35:27.841Z,99302.09
2019-01-28T19:40:30.985Z,99312.03
2019-01-28T19:45:36.276Z,99319.66
2019-01-28T19:50:41.023Z,99331.10
2019-01-28T19:55:46.527Z,99337.11
2019-01-28T20:00:53.793Z,99356.98
2019-01-28T20:06:00.260Z,99357.13
2019-01-28T20:11:06.253Z,99370.73
2019-01-28T20:16:12.301Z,99374.26
2019-01-28T20:21:23.630Z,99381.16
2019-01-28T20:26:25.817Z,99378.00
2019-01-28T20:31:31.506Z,99394.78
2019-01-28T20:36:36.426Z,99400.80
2019-01-28T20:41:41.984Z,99411.91
2019-01-28T20:46:45.946Z,99416.63
2019-01-28T20:51:52.011Z,99424.36
2019-01-28T20:56:56.191Z,99441.67
2019-01-28T21:01:59.742Z,99452.19
2019-01-28T21:07:02.574Z,99460.77
2019-01-28T21:12:05.451Z,99461.67
2019-01-28T21:17:10.712Z,99462.91
2019-01-28T21:22:13.099Z,99466.94
2019-01-28T21:27:18.486Z,99465.53
2019-01-28T21:32:21.983Z,99470.36
2019-01-28T21:37:31.011Z,99479.48
2019-01-28T21:42:33.846Z,99483.13
2019-01-28T21:47:36.927Z,99492.02
2019-01-28T21:52:39.519Z,99494.38
2019-01-28T21:57:42.716Z,99495.73
2019-01-28T22:02:45.835Z,99491.79
2019-01-28T22:07:48.792Z,99496.83
2019-01-28T22:12:51.910Z,99498.11
2019-01-28T22:17:54.909Z,99496.78
2019-01-28T22:22:57.861Z,99504.88
2019-01-28T22:28:00.619Z,99511.80
2019-01-28T22:33:03.415Z,99509.91
2019-01-28T22:38:06.031Z,99514.18
2019-01-28T22:43:08.321Z,99517.03
2019-01-28T22:48:10.520Z,99528.80
2019-01-28T22:53:13.509Z,99534.22
2019-01-28T22:58:15.909Z,99537.64
2019-01-28T23:09:53.758Z,99549.22
2019-01-28T23:14:56.829Z,99550.59
2019-01-28T23:20:00.255Z,99560.38
2019-01-28T23:25:05.808Z,99573.66
2019-01-28T23:30:10.828Z,99578.72
2019-01-28T23:35:14.967Z,99585.44
2019-01-28T23:40:18.195Z,99593.17
2019-01-28T23:45:21.513Z,99595.09
2019-01-28T23:50:24.408Z,99598.53
2019-01-28T23:55:27.938Z,99596.72
